Loris, South Carolina
Current Conditions -  °F | °C
As of 1:55 AM on Monday 22 Dec 2014 (Local Time) from KCPC Reporting Station
Haze Haze  
Wind Chill: 43°   Ceiling: 400
Heat Index: 43°   Visibility: 5mi
Dew Point: 42°   Wind: 3mph
Humidity: 95%   Direction: 360°N
Pressure: 30.1"   Gusts: NA
Location:  34.06°N, 78.89°W
Report Text: KCPC 220655Z AUTO 36003KT 5SM BR OVC004 06/06 A3010 RMK AO2 P0001 T00630055
Loading
Personal Weather Stations






























Interactive Weather Map New forecast layout! Learn more

10-Day Weather Forecast

Advertisements
Track Severe Weather on mobile